ケアンズ の空港の天気 - METARとTAF

ケアンズ国際空港 ( YBCS / CNS ) - オーストラリア クイーンズランド州ケアンズ
飛行場実況気象(Metar)
観測時間02/18 00:30 AEST (02/17 14:30 UTC)
風向・風速西北西 2m/s
視程10km以上
天気現象
全天の4割程度の雲 雲底高度 1340m
気温26℃
湿度84%
気圧1010hPa
METARYBCS 171430Z AUTO 29004KT 9999 // SCT044 26/23 Q1010 RMK RF00.0/002.2 NOSIG
過去の天気等 Google飛行場航空写真 Wunderground天気予報

過去48時間のMETAR

飛行場予報(TAF)
発表時間: 2/17 22:34 AEST (2/17 12:34 UTC)
予報対象時間: 17日23時 AEST ~ 18日22時 AEST
風向・風速不定 3m/s
視程10km以上
天気現象弱いしゅう雨
少しの雲 雲底高度 670m
全天の8割程度の雲 雲底高度 910m
18日12時 AEST から
風向・風速北東 6m/s
視程10km以上
全天の4割程度の雲 雲底高度 760m
18日18時 AEST から
風向・風速不定 3m/s
視程10km以上
全天の4割程度の雲 雲底高度 670m
TAF AMD YBCS 171234Z 1713/1812 VRB05KT 9999 -SHRA FEW022 BKN030
FM180200 04012KT 9999 SCT025
FM180800 VRB05KT 9999 SCT022